Time;durP1;ratioP1;P1;durP2;ratioP2;P2;SDS_P1;SDS_P2;PMS_P1;PMS_P2;Temp;Humidity;BMP_temperature;BMP_pressure;BME280_temperature;BME280_humidity;BME280_pressure;Samples;Min_cycle;Max_cycle;Signal;HPM_P1;HPM_P2
2023/08/23 00:00:31;;;;;;;10.63;7.75;;;;;;;29.44;55.36;100224.50;4953985;29;20412;-72
2023/08/23 00:02:59;;;;;;;10.52;8.60;;;;;;;29.43;55.51;100222.78;4954083;29;20051;-72
2023/08/23 00:05:35;;;;;;;11.25;8.18;;;;;;;29.43;55.65;100217.28;4953873;29;20515;-71
2023/08/23 00:08:05;;;;;;;10.68;7.95;;;;;;;29.42;55.72;100221.09;4953641;29;20047;-71
2023/08/23 00:10:34;;;;;;;11.00;8.07;;;;;;;29.40;55.73;100212.25;4953799;29;20051;-72
2023/08/23 00:13:02;;;;;;;10.23;8.15;;;;;;;29.41;55.92;100213.09;4953901;29;20483;-71
2023/08/23 00:15:31;;;;;;;10.15;8.02;;;;;;;29.39;55.80;100216.06;4954097;29;20472;-72
2023/08/23 00:17:59;;;;;;;13.80;8.73;;;;;;;29.39;55.83;100218.78;4953703;29;20048;-71
2023/08/23 00:20:30;;;;;;;9.90;7.85;;;;;;;29.39;55.81;100218.78;4953652;29;20047;-72
2023/08/23 00:23:01;;;;;;;10.30;8.73;;;;;;;29.36;55.77;100216.50;4953563;29;20487;-72
2023/08/23 00:25:30;;;;;;;11.55;8.60;;;;;;;29.38;56.11;100213.53;4953785;29;20483;-72
2023/08/23 00:27:59;;;;;;;11.05;8.45;;;;;;;29.36;55.84;100211.00;4953484;29;20054;-72
2023/08/23 00:30:48;;;;;;;9.77;8.43;;;;;;;29.34;55.58;100207.63;4953727;29;20059;-72
2023/08/23 00:33:19;;;;;;;9.77;7.88;;;;;;;29.33;56.07;100206.75;4935362;29;20043;-71
2023/08/23 00:35:50;;;;;;;9.77;8.02;;;;;;;29.33;56.20;100208.66;4953387;29;20090;-71
2023/08/23 00:38:24;;;;;;;10.10;7.75;;;;;;;29.30;56.13;100206.34;4953310;29;20504;-72
2023/08/23 00:40:54;;;;;;;11.88;8.32;;;;;;;29.32;56.43;100215.22;4953483;29;20221;-71
2023/08/23 00:43:22;;;;;;;11.88;9.00;;;;;;;29.32;56.30;100209.72;4953371;29;20062;-71
2023/08/23 00:45:50;;;;;;;10.10;8.82;;;;;;;29.29;56.17;100205.50;4953255;29;20131;-72
2023/08/23 00:48:18;;;;;;;11.25;8.30;;;;;;;29.29;56.25;100213.75;4953183;29;20047;-71
2023/08/23 00:50:47;;;;;;;13.55;8.30;;;;;;;29.27;56.41;100206.78;4953379;29;20101;-71
2023/08/23 00:53:16;;;;;;;12.00;8.48;;;;;;;29.25;56.50;100198.78;4953666;29;20047;-72
2023/08/23 00:55:44;;;;;;;11.15;8.98;;;;;;;29.27;56.72;100204.88;4953116;29;20090;-72
2023/08/23 00:58:14;;;;;;;10.48;8.05;;;;;;;29.25;56.35;100203.44;4953318;29;20508;-72
2023/08/23 01:00:43;;;;;;;10.02;8.35;;;;;;;29.25;56.72;100208.91;4952892;29;20054;-71
2023/08/23 01:03:15;;;;;;;9.52;7.82;;;;;;;29.25;56.94;100209.75;4950855;29;20051;-72
2023/08/23 01:05:58;;;;;;;12.73;8.80;;;;;;;29.23;56.57;100209.09;4955036;28;20381;-71
2023/08/23 01:08:32;;;;;;;;;;;;;;;29.23;57.22;100211.00;4957538;28;20118;-71
2023/08/23 01:11:07;;;;;;;9.88;8.30;;;;;;;29.22;57.15;100212.91;4955746;29;19922;-72
2023/08/23 01:13:42;;;;;;;11.18;8.82;;;;;;;29.20;56.92;100209.53;4956846;28;20492;-70
2023/08/23 01:16:11;;;;;;;11.65;8.90;;;;;;;29.19;57.28;100205.13;4956897;29;20110;-71
2023/08/23 01:18:44;;;;;;;10.63;8.45;;;;;;;29.18;57.49;100203.44;4956710;29;20047;-71
2023/08/23 01:21:19;;;;;;;10.73;9.02;;;;;;;29.18;57.46;100194.34;4939686;29;20051;-71
2023/08/23 01:23:50;;;;;;;11.02;8.45;;;;;;;29.13;57.44;100194.97;4956978;29;20110;-71
2023/08/23 01:26:18;;;;;;;10.90;8.55;;;;;;;29.15;57.42;100203.03;4957028;29;20145;-71
2023/08/23 01:28:47;;;;;;;9.98;8.55;;;;;;;29.14;57.34;100201.31;4956724;29;20043;-71
2023/08/23 01:31:17;;;;;;;10.52;9.43;;;;;;;29.13;57.23;100205.13;4955806;29;20054;-71
2023/08/23 01:33:56;;;;;;;10.50;9.07;;;;;;;29.11;57.68;100193.50;4956623;29;20051;-71
2023/08/23 01:36:26;;;;;;;10.35;8.57;;;;;;;29.12;57.52;100192.44;4956862;29;20078;-71
2023/08/23 01:38:58;;;;;;;10.00;8.93;;;;;;;29.09;57.46;100190.97;4956393;29;20055;-71
2023/08/23 01:41:27;;;;;;;10.77;8.85;;;;;;;29.07;57.91;100190.34;4956536;29;20114;-71
2023/08/23 01:43:55;;;;;;;11.95;9.05;;;;;;;29.11;57.80;100190.75;4956455;29;20047;-71
2023/08/23 01:46:27;;;;;;;10.13;9.02;;;;;;;29.08;57.88;100190.16;4956689;29;20051;-71
2023/08/23 01:48:55;;;;;;;11.48;8.63;;;;;;;29.07;57.79;100193.94;4956357;29;20504;-71
2023/08/23 01:51:23;;;;;;;11.40;8.73;;;;;;;29.05;57.83;100193.31;4956482;29;20051;-71
2023/08/23 01:53:51;;;;;;;12.52;9.70;;;;;;;29.06;58.13;100183.19;4956041;29;20051;-71
2023/08/23 01:56:21;;;;;;;13.35;9.15;;;;;;;29.05;57.92;100182.34;4938806;29;20095;-71
2023/08/23 01:58:50;;;;;;;10.05;8.90;;;;;;;29.02;58.13;100180.00;4956127;29;20047;-71
2023/08/23 02:01:18;;;;;;;11.23;9.10;;;;;;;29.02;57.87;100180.00;4939396;29;20445;-71
2023/08/23 02:03:47;;;;;;;11.25;9.07;;;;;;;29.02;58.25;100176.41;4938835;29;20051;-71
2023/08/23 02:06:17;;;;;;;11.20;9.27;;;;;;;29.00;58.19;100168.41;4938985;29;20134;-71
2023/08/23 02:08:46;;;;;;;11.65;8.95;;;;;;;29.01;58.53;100171.97;4956216;29;20131;-71
2023/08/23 02:11:14;;;;;;;12.13;9.38;;;;;;;29.00;58.39;100171.16;4956042;29;20113;-71
2023/08/23 02:13:49;;;;;;;11.50;9.13;;;;;;;28.99;58.33;100172.22;4955788;29;20051;-72
2023/08/23 02:16:20;;;;;;;10.40;9.10;;;;;;;28.98;58.55;100167.78;4956038;28;20427;-71
2023/08/23 02:18:48;;;;;;;12.13;9.85;;;;;;;28.98;58.34;100172.44;4955917;29;20055;-71
2023/08/23 02:21:17;;;;;;;9.88;8.60;;;;;;;28.97;58.57;100166.09;4955915;29;20524;-71
2023/08/23 02:23:45;;;;;;;11.35;9.02;;;;;;;28.95;58.60;100165.47;4955786;29;20097;-72
2023/08/23 02:26:16;;;;;;;11.95;8.63;;;;;;;28.94;58.50;100157.41;4955875;29;20051;-72
2023/08/23 02:28:45;;;;;;;;;;;;;;;28.93;58.68;100151.09;4956341;29;20059;-72
2023/08/23 02:31:15;;;;;;;12.35;9.38;;;;;;;28.91;58.49;100158.69;4955514;29;20347;-72
2023/08/23 02:33:46;;;;;;;12.95;9.93;;;;;;;28.91;58.41;100153.22;4955656;29;20055;-71
2023/08/23 02:36:15;;;;;;;11.10;9.20;;;;;;;28.91;58.48;100155.97;4938511;29;20048;-72
2023/08/23 02:38:43;;;;;;;11.63;8.95;;;;;;;28.90;58.35;100165.25;4955687;29;20253;-71
2023/08/23 02:41:11;;;;;;;11.90;9.73;;;;;;;28.88;58.94;100153.63;4955575;29;20070;-71
2023/08/23 02:43:41;;;;;;;11.82;8.82;;;;;;;28.86;58.93;100150.25;4955760;29;20133;-73
2023/08/23 02:46:09;;;;;;;10.50;9.27;;;;;;;28.86;58.82;100163.97;4955409;29;20113;-72
2023/08/23 02:48:41;;;;;;;11.50;8.88;;;;;;;28.86;58.73;100150.25;4955333;29;20051;-72
2023/08/23 02:51:10;;;;;;;11.70;8.88;;;;;;;28.85;59.04;100159.50;4955221;29;20552;-72
2023/08/23 02:53:40;;;;;;;12.77;9.63;;;;;;;28.84;59.00;100157.81;4937780;29;20106;-72
2023/08/23 02:56:08;;;;;;;12.30;9.20;;;;;;;28.82;59.05;100154.47;4955014;29;20419;-72
2023/08/23 02:58:36;;;;;;;11.13;9.55;;;;;;;28.82;58.74;100159.94;4955283;29;20047;-72
2023/08/23 03:01:05;;;;;;;10.38;8.85;;;;;;;28.80;58.95;100153.84;4955108;29;20060;-72
2023/08/23 03:03:36;;;;;;;11.43;9.90;;;;;;;28.79;59.14;100155.75;4955051;29;20052;-72
2023/08/23 03:06:06;;;;;;;12.93;9.05;;;;;;;28.79;58.97;100154.91;4954773;29;20138;-72
2023/08/23 03:08:35;;;;;;;11.55;9.32;;;;;;;28.78;59.26;100158.69;4954976;29;20485;-71
2023/08/23 03:11:04;;;;;;;11.50;9.02;;;;;;;28.77;59.13;100159.75;4954918;29;20098;-73
2023/08/23 03:13:33;;;;;;;11.57;9.02;;;;;;;28.76;59.13;100158.06;4954945;29;20058;-72
2023/08/23 03:16:02;;;;;;;11.38;8.77;;;;;;;28.75;58.94;100159.09;4954787;29;20061;-72
2023/08/23 03:18:31;;;;;;;11.32;9.45;;;;;;;28.75;59.31;100153.63;4954648;29;20079;-72
2023/08/23 03:21:00;;;;;;;11.50;9.52;;;;;;;28.74;59.47;100154.69;4954625;29;20481;-72
2023/08/23 03:23:29;;;;;;;11.23;9.07;;;;;;;28.72;59.48;100149.41;4954738;29;20055;-72
2023/08/23 03:25:57;;;;;;;11.38;9.68;;;;;;;28.71;59.68;100152.38;4954415;29;20058;-72
2023/08/23 03:28:29;;;;;;;12.63;9.52;;;;;;;28.71;59.63;100147.72;4954024;28;20130;-71
2023/08/23 03:31:02;;;;;;;12.15;9.23;;;;;;;28.71;59.25;100146.88;4954563;29;20051;-71
2023/08/23 03:33:30;;;;;;;10.95;9.18;;;;;;;28.69;59.27;100146.25;4954534;29;20385;-71
2023/08/23 03:35:59;;;;;;;11.80;9.13;;;;;;;28.68;59.57;100152.81;4954355;29;20047;-71
2023/08/23 03:38:28;;;;;;;11.90;9.60;;;;;;;28.67;59.65;100146.47;4954518;29;20053;-71
2023/08/23 03:40:57;;;;;;;9.88;8.88;;;;;;;28.67;59.26;100151.97;4954466;29;20066;-71
2023/08/23 03:43:25;;;;;;;11.38;9.40;;;;;;;28.65;59.42;100151.31;4953315;29;20186;-71
2023/08/23 03:45:55;;;;;;;11.35;9.07;;;;;;;28.66;59.77;100154.88;4954219;29;20054;-71
2023/08/23 03:48:24;;;;;;;10.90;9.80;;;;;;;28.65;59.88;100154.03;4954427;29;20082;-72
2023/08/23 03:50:55;;;;;;;11.77;9.55;;;;;;;28.63;59.52;100155.31;4932235;29;20055;-71
2023/08/23 03:53:26;;;;;;;13.27;9.57;;;;;;;28.62;59.91;100148.16;4935115;29;20458;-72
2023/08/23 03:55:59;;;;;;;11.90;9.38;;;;;;;28.62;59.70;100150.88;4934646;29;20143;-72
2023/08/23 03:58:27;;;;;;;;;;;;;;;28.62;59.88;100156.38;4935065;29;20059;-72
2023/08/23 04:00:56;;;;;;;12.93;9.30;;;;;;;28.60;59.77;100150.25;4934914;29;19958;-72
2023/08/23 04:03:24;;;;;;;11.68;9.88;;;;;;;28.60;60.00;100159.34;4934850;29;20059;-71
2023/08/23 04:05:53;;;;;;;13.27;9.65;;;;;;;28.58;59.51;100146.91;4934755;29;20055;-72
2023/08/23 04:08:21;;;;;;;10.23;9.13;;;;;;;28.56;60.07;100143.50;4934619;29;20141;-72
2023/08/23 04:10:50;;;;;;;11.77;9.15;;;;;;;28.57;59.66;100147.94;4934390;29;20052;-71
2023/08/23 04:13:19;;;;;;;11.82;9.60;;;;;;;28.55;60.07;100139.91;4934655;29;20051;-72
2023/08/23 04:15:57;;;;;;;12.88;9.45;;;;;;;28.55;60.12;100137.16;4934662;29;20055;-72
2023/08/23 04:18:25;;;;;;;12.75;9.35;;;;;;;28.52;59.80;100138.44;4934413;29;20087;-72
2023/08/23 04:20:59;;;;;;;12.30;9.50;;;;;;;28.54;60.11;100145.63;4950038;29;20061;-71
2023/08/23 04:23:28;;;;;;;12.57;9.73;;;;;;;28.54;60.20;100134.63;4952983;29;20137;-71
2023/08/23 04:25:58;;;;;;;12.10;9.90;;;;;;;28.51;60.18;100131.28;4953543;29;20134;-71
2023/08/23 04:28:27;;;;;;;12.55;9.88;;;;;;;28.51;60.04;100120.31;4953470;29;20134;-71
2023/08/23 04:31:03;;;;;;;11.32;9.38;;;;;;;28.52;59.86;100123.88;4935601;29;20087;-71
2023/08/23 04:33:39;;;;;;;12.93;9.57;;;;;;;28.48;60.13;100115.25;4953465;29;20405;-71
2023/08/23 04:36:09;;;;;;;11.57;10.13;;;;;;;28.47;60.23;100116.31;4953277;29;20445;-72
2023/08/23 04:38:37;;;;;;;12.40;9.90;;;;;;;28.48;60.29;100125.38;4953737;29;20047;-71
2023/08/23 04:41:08;;;;;;;11.70;9.57;;;;;;;28.48;60.31;100120.72;4952564;29;20065;-72
2023/08/23 04:43:40;;;;;;;13.05;9.80;;;;;;;28.47;60.44;100135.50;4953382;29;20054;-71
2023/08/23 04:46:09;;;;;;;11.57;9.48;;;;;;;28.47;60.25;100132.75;4953200;29;20196;-71
2023/08/23 04:48:40;;;;;;;15.38;9.35;;;;;;;28.46;60.48;100133.78;4953220;29;20051;-71
2023/08/23 04:51:09;;;;;;;11.50;9.82;;;;;;;28.45;60.52;100132.09;4953348;29;20075;-71
2023/08/23 04:53:40;;;;;;;12.02;9.20;;;;;;;28.44;60.54;100130.44;4953196;29;20061;-71
2023/08/23 04:56:09;;;;;;;13.57;9.35;;;;;;;28.43;60.43;100123.25;4953120;29;20056;-72
2023/08/23 04:58:38;;;;;;;12.13;9.45;;;;;;;28.44;60.76;100129.59;4953427;29;20059;-71
2023/08/23 05:01:09;;;;;;;13.63;9.98;;;;;;;28.39;60.83;100122.00;4953524;29;20053;-71
2023/08/23 05:03:38;;;;;;;13.75;10.32;;;;;;;28.42;60.63;100127.06;4953072;29;20051;-71
2023/08/23 05:06:07;;;;;;;15.02;10.15;;;;;;;28.41;60.79;100125.38;4953177;29;20461;-73
2023/08/23 05:08:36;;;;;;;12.65;9.60;;;;;;;28.40;61.01;100128.34;4953119;29;20126;-70
2023/08/23 05:11:04;;;;;;;13.40;9.55;;;;;;;28.41;60.87;100135.50;4953139;29;20489;-72
2023/08/23 05:13:35;;;;;;;13.35;10.27;;;;;;;28.40;61.14;100131.91;4952778;29;20051;-72
2023/08/23 05:16:04;;;;;;;13.15;9.77;;;;;;;28.40;60.94;100131.91;4953006;29;20055;-70
2023/08/23 05:18:34;;;;;;;14.40;10.38;;;;;;;28.39;61.03;100132.97;4952915;29;20054;-70
2023/08/23 05:21:09;;;;;;;14.93;10.20;;;;;;;28.39;61.15;100124.75;4935715;29;20544;-71
2023/08/23 05:23:40;;;;;;;14.13;10.05;;;;;;;28.38;60.99;100131.28;4952835;29;20082;-72
2023/08/23 05:26:09;;;;;;;13.52;10.15;;;;;;;28.38;61.11;100131.28;4935814;29;20055;-71
2023/08/23 05:28:41;;;;;;;15.02;10.50;;;;;;;28.37;60.91;100126.81;4935620;29;20488;-71
2023/08/23 05:31:09;;;;;;;13.55;10.55;;;;;;;28.37;61.28;100129.56;4952857;29;20050;-72
2023/08/23 05:33:48;;;;;;;15.13;9.88;;;;;;;28.39;61.13;100132.13;4952387;29;20511;-71
2023/08/23 05:36:16;;;;;;;15.88;9.98;;;;;;;28.38;61.31;100130.44;4950410;29;20110;-71
2023/08/23 05:38:45;;;;;;;13.63;10.63;;;;;;;28.36;61.08;100127.88;4952139;29;20138;-71
2023/08/23 05:41:13;;;;;;;13.65;10.60;;;;;;;28.36;60.94;100127.88;4952733;29;20050;-71
2023/08/23 05:43:42;;;;;;;19.00;10.98;;;;;;;28.35;61.21;100128.94;4952857;29;20051;-71
2023/08/23 05:46:13;;;;;;;16.33;10.73;;;;;;;28.36;61.02;100127.88;4952728;29;20137;-71
2023/08/23 05:48:42;;;;;;;14.20;10.00;;;;;;;28.34;61.33;100130.00;4952608;29;20048;-71
2023/08/23 05:51:13;;;;;;;15.63;10.00;;;;;;;28.33;61.07;100133.81;4936833;29;20320;-71
2023/08/23 05:53:44;;;;;;;15.73;10.50;;;;;;;28.31;61.19;100129.59;4956521;29;20051;-71
2023/08/23 05:56:12;;;;;;;14.13;10.48;;;;;;;28.29;60.93;100128.97;4955984;29;20430;-72
2023/08/23 05:58:43;;;;;;;13.50;10.18;;;;;;;28.29;60.79;100134.44;4956387;29;20043;-71
2023/08/23 06:01:15;;;;;;;14.73;10.27;;;;;;;28.27;60.67;100131.00;4940385;29;20110;-70
2023/08/23 06:03:44;;;;;;;14.52;10.23;;;;;;;28.26;60.39;100132.91;4955744;29;20484;-72
2023/08/23 06:06:14;;;;;;;13.70;9.95;;;;;;;28.26;60.62;100124.69;4960433;28;20049;-71
2023/08/23 06:08:42;;;;;;;13.80;10.10;;;;;;;28.27;60.73;100128.28;4964230;28;20065;-71
2023/08/23 06:11:10;;;;;;;13.52;10.00;;;;;;;28.25;60.48;100133.97;4964850;28;20054;-71
2023/08/23 06:13:42;;;;;;;13.00;9.73;;;;;;;28.23;60.58;100130.59;4965915;28;20050;-71
2023/08/23 06:16:10;;;;;;;14.27;10.33;;;;;;;28.24;60.37;100126.81;4965152;28;20403;-71
2023/08/23 06:18:41;;;;;;;12.70;10.20;;;;;;;28.24;60.45;100135.03;4955770;29;20286;-71
2023/08/23 06:21:11;;;;;;;11.05;9.45;;;;;;;28.24;60.09;100124.91;4955992;29;20047;-71
2023/08/23 06:23:43;;;;;;;13.27;10.13;;;;;;;28.24;60.07;100135.03;4955349;29;20043;-70
2023/08/23 06:26:12;;;;;;;;;;;;;;;28.23;60.35;100139.69;4956172;29;20097;-69
2023/08/23 06:28:41;;;;;;;12.35;9.80;;;;;;;28.23;60.04;100142.41;4955578;29;20310;-69
2023/08/23 06:31:19;;;;;;;14.88;10.30;;;;;;;28.25;60.08;100150.44;4955454;29;20059;-69
2023/08/23 06:33:47;;;;;;;11.27;9.80;;;;;;;28.24;60.22;100154.22;4955739;29;20047;-69
2023/08/23 06:36:17;;;;;;;12.48;9.73;;;;;;;28.25;60.27;100142.19;4955991;29;20122;-69
2023/08/23 06:38:45;;;;;;;13.25;9.45;;;;;;;28.24;60.21;100144.09;4955510;29;20130;-69
2023/08/23 06:41:14;;;;;;;15.43;9.98;;;;;;;28.24;59.92;100140.50;4955264;29;20134;-69
2023/08/23 06:43:43;;;;;;;11.60;9.50;;;;;;;28.28;60.27;100151.91;4955094;29;20090;-69
2023/08/23 06:46:11;;;;;;;12.43;10.13;;;;;;;28.29;59.91;100157.22;4938358;29;20214;-70
2023/08/23 06:48:39;;;;;;;12.30;9.38;;;;;;;28.28;60.39;100149.16;4937906;29;20051;-69
2023/08/23 06:51:07;;;;;;;12.30;9.48;;;;;;;28.29;60.05;100149.00;4955265;29;20055;-69
2023/08/23 06:53:37;;;;;;;13.35;9.77;;;;;;;28.32;60.25;100147.72;4955160;29;20411;-69
2023/08/23 06:56:08;;;;;;;13.18;10.02;;;;;;;28.32;60.21;100148.56;4954890;29;20500;-69
2023/08/23 06:58:36;;;;;;;11.83;9.37;;;;;;;28.31;60.02;100149.63;4938311;29;20098;-69
2023/08/23 07:01:07;;;;;;;11.93;9.38;;;;;;;28.33;59.94;100158.50;4955248;29;20082;-69
2023/08/23 07:03:35;;;;;;;11.90;8.98;;;;;;;28.34;59.80;100162.91;4954264;28;20098;-69
2023/08/23 07:06:03;;;;;;;13.70;9.05;;;;;;;28.35;60.19;100161.84;4954902;29;20106;-70
2023/08/23 07:08:32;;;;;;;11.30;8.57;;;;;;;28.36;59.75;100165.44;4954877;29;20047;-69
2023/08/23 07:11:02;;;;;;;12.32;9.02;;;;;;;28.36;59.80;100166.28;4954654;29;20125;-69
2023/08/23 07:13:30;;;;;;;12.55;9.20;;;;;;;28.36;60.00;100166.28;4954421;29;20492;-69
2023/08/23 07:16:00;;;;;;;11.82;8.70;;;;;;;28.36;59.72;100162.69;4954759;29;20091;-69
2023/08/23 07:18:30;;;;;;;11.07;9.32;;;;;;;28.38;59.97;100168.84;4954977;29;20051;-68
2023/08/23 07:20:59;;;;;;;11.52;9.07;;;;;;;28.38;60.18;100168.84;4953734;29;20055;-69
2023/08/23 07:23:28;;;;;;;12.30;9.05;;;;;;;28.37;59.88;100165.22;4954565;29;20058;-69
2023/08/23 07:25:56;;;;;;;10.65;8.20;;;;;;;28.39;59.99;100170.53;4954705;29;20388;-70
2023/08/23 07:28:28;;;;;;;11.02;8.57;;;;;;;28.40;59.95;100175.81;4954531;29;20047;-69
2023/08/23 07:31:00;;;;;;;10.85;8.52;;;;;;;28.39;59.78;100171.38;4954440;29;20393;-70
2023/08/23 07:33:29;;;;;;;12.38;8.90;;;;;;;28.41;60.24;100169.25;4954323;29;20055;-70
2023/08/23 07:35:58;;;;;;;10.27;8.52;;;;;;;28.42;59.85;100172.84;4953790;29;20047;-70
2023/08/23 07:38:28;;;;;;;10.63;8.60;;;;;;;28.42;60.26;100176.44;4954618;29;20457;-69
2023/08/23 07:41:00;;;;;;;12.43;8.43;;;;;;;28.43;59.84;100178.13;4954059;29;20057;-68
2023/08/23 07:43:30;;;;;;;11.18;8.48;;;;;;;28.42;60.09;100170.94;4954318;29;20106;-69
2023/08/23 07:46:00;;;;;;;10.38;8.52;;;;;;;28.44;60.13;100173.47;4937115;29;20142;-69
2023/08/23 07:48:28;;;;;;;10.05;8.52;;;;;;;28.44;60.16;100179.81;4953944;29;20047;-69
2023/08/23 07:51:00;;;;;;;11.02;8.52;;;;;;;28.44;59.81;100171.56;4954203;29;20503;-70
2023/08/23 07:53:29;;;;;;;9.25;8.23;;;;;;;28.46;60.06;100183.16;4954183;29;20106;-69
2023/08/23 07:55:57;;;;;;;10.38;8.27;;;;;;;28.45;60.29;100183.38;4953717;29;20059;-69
2023/08/23 07:58:25;;;;;;;10.55;8.48;;;;;;;28.47;60.19;100190.38;4953886;29;20134;-68
2023/08/23 08:00:55;;;;;;;11.52;8.43;;;;;;;28.47;60.05;100182.16;4953854;29;20047;-69
2023/08/23 08:03:23;;;;;;;10.50;8.43;;;;;;;28.48;60.12;100181.09;4953764;29;20145;-69
2023/08/23 08:05:54;;;;;;;11.43;8.65;;;;;;;28.48;60.21;100178.34;4953800;29;20456;-69
2023/08/23 08:08:22;;;;;;;10.07;8.65;;;;;;;28.50;60.22;100183.63;4954144;29;20053;-69
2023/08/23 08:10:51;;;;;;;10.05;8.43;;;;;;;28.51;60.16;100185.31;4953719;29;20062;-68
2023/08/23 08:13:20;;;;;;;9.68;8.00;;;;;;;28.51;60.13;100180.66;4936953;29;20106;-69
2023/08/23 08:15:49;;;;;;;9.40;8.02;;;;;;;28.51;60.18;100180.66;4953928;29;20051;-69
2023/08/23 08:18:19;;;;;;;12.18;8.30;;;;;;;28.52;59.98;100181.50;4953643;29;20051;-69
2023/08/23 08:20:48;;;;;;;10.57;8.15;;;;;;;28.54;59.92;100181.28;4953509;29;20053;-69
2023/08/23 08:23:16;;;;;;;9.63;8.35;;;;;;;28.55;60.12;100182.97;4953637;29;20055;-69
2023/08/23 08:25:45;;;;;;;9.93;8.40;;;;;;;28.57;60.46;100189.09;4954085;29;20051;-69
2023/08/23 08:28:13;;;;;;;8.93;7.70;;;;;;;28.58;60.42;100179.81;4937350;29;20070;-69
2023/08/23 08:30:42;;;;;;;9.15;7.68;;;;;;;28.58;60.38;100179.81;4953938;29;20074;-69
2023/08/23 08:33:11;;;;;;;10.50;7.72;;;;;;;28.58;60.52;100182.56;4953517;29;20506;-69
2023/08/23 08:35:44;;;;;;;9.38;7.72;;;;;;;28.59;60.38;100178.75;4953477;29;20051;-69
2023/08/23 08:38:12;;;;;;;;;;;;;;;28.61;60.52;100174.75;4953820;29;20052;-69
2023/08/23 08:40:43;;;;;;;9.75;8.05;;;;;;;28.61;60.25;100174.75;4953396;29;19930;-69
2023/08/23 08:43:17;;;;;;;9.77;8.07;;;;;;;28.62;60.48;100175.59;4953609;29;20063;-69
2023/08/23 08:45:46;;;;;;;10.50;7.97;;;;;;;28.65;60.57;100167.75;4936773;29;20281;-70
2023/08/23 08:48:14;;;;;;;8.70;7.60;;;;;;;28.65;60.37;100166.91;4953364;29;20058;-69
2023/08/23 08:50:44;;;;;;;9.60;7.85;;;;;;;28.67;60.44;100167.59;4953170;29;20047;-70
2023/08/23 08:53:15;;;;;;;9.75;7.90;;;;;;;28.68;60.38;100170.09;4952280;29;20428;-69
2023/08/23 08:55:45;;;;;;;9.88;8.23;;;;;;;28.70;60.60;100167.16;4952789;29;20423;-69
2023/08/23 08:58:19;;;;;;;9.18;7.78;;;;;;;28.71;60.59;100174.31;4935982;29;20429;-70
2023/08/23 09:00:49;;;;;;;11.15;7.90;;;;;;;28.72;60.15;100176.00;4935918;29;20055;-70
2023/08/23 09:03:18;;;;;;;11.52;7.82;;;;;;;28.72;60.41;100174.09;4953141;29;20118;-69
2023/08/23 09:05:49;;;;;;;9.05;7.60;;;;;;;28.75;60.40;100170.09;4952988;29;20078;-70
2023/08/23 09:08:18;;;;;;;10.13;7.78;;;;;;;28.77;60.56;100178.97;4953074;29;20072;-69
2023/08/23 09:10:47;;;;;;;9.73;7.97;;;;;;;28.78;60.66;100184.25;4953253;29;20110;-69
2023/08/23 09:13:15;;;;;;;10.35;7.35;;;;;;;28.79;60.73;100183.19;4953125;29;20169;-70
2023/08/23 09:15:43;;;;;;;9.15;7.18;;;;;;;28.80;60.61;100173.03;4953043;29;20067;-70
2023/08/23 09:18:13;;;;;;;8.82;7.45;;;;;;;28.83;60.66;100180.84;4936053;29;20102;-69
2023/08/23 09:20:45;;;;;;;8.23;7.22;;;;;;;28.82;60.44;100165.44;4953254;29;20126;-69
2023/08/23 09:23:20;;;;;;;10.10;7.70;;;;;;;28.85;60.63;100175.97;4953001;29;20086;-69
2023/08/23 09:25:48;;;;;;;;;;;;;;;28.86;60.67;100172.22;4953976;28;20083;-69
2023/08/23 09:28:16;;;;;;;8.15;7.05;;;;;;;28.86;60.61;100179.59;4956745;29;19923;-69
2023/08/23 09:30:50;;;;;;;10.43;7.40;;;;;;;28.88;60.59;100174.72;4939609;29;20142;-69
2023/08/23 09:33:18;;;;;;;9.73;7.78;;;;;;;28.88;60.75;100166.50;4940006;29;20098;-69
2023/08/23 09:35:49;;;;;;;9.20;7.43;;;;;;;28.90;60.57;100173.47;4956479;29;20074;-69
2023/08/23 09:38:23;;;;;;;9.55;7.13;;;;;;;28.92;60.85;100171.38;4956557;29;20519;-68
2023/08/23 09:40:54;;;;;;;9.57;7.13;;;;;;;28.93;60.62;100162.06;4939605;29;20151;-69
2023/08/23 09:43:25;;;;;;;9.05;7.45;;;;;;;28.95;60.68;100165.47;4956446;29;20047;-69
2023/08/23 09:45:53;;;;;;;10.85;7.20;;;;;;;28.96;60.74;100161.66;4956621;29;20057;-69
2023/08/23 09:48:24;;;;;;;9.98;7.88;;;;;;;28.98;60.77;100159.53;4956483;29;20047;-69
2023/08/23 09:50:55;;;;;;;8.75;7.65;;;;;;;28.99;60.84;100161.22;4956563;29;20106;-69
2023/08/23 09:53:34;;;;;;;8.13;6.93;;;;;;;29.02;60.43;100160.78;4956325;29;20055;-68
2023/08/23 09:56:08;;;;;;;9.18;7.10;;;;;;;29.03;60.38;100165.22;4938798;29;20110;-69
2023/08/23 09:58:37;;;;;;;9.05;7.03;;;;;;;29.05;60.59;100160.38;4956126;29;20476;-70
2023/08/23 10:01:06;;;;;;;8.98;6.55;;;;;;;29.06;60.42;100162.06;4956029;29;20391;-69
2023/08/23 10:03:34;;;;;;;8.32;7.07;;;;;;;29.10;60.54;100167.13;4956190;29;20055;-70
2023/08/23 10:06:03;;;;;;;9.00;7.75;;;;;;;29.11;60.56;100175.13;4956091;29;20051;-69
2023/08/23 10:08:36;;;;;;;8.47;7.13;;;;;;;29.14;60.43;100169.19;4956218;29;20098;-69
2023/08/23 10:11:05;;;;;;;10.15;7.45;;;;;;;29.18;60.51;100169.63;4956144;29;20283;-69
2023/08/23 10:13:35;;;;;;;9.00;7.72;;;;;;;29.21;60.45;100174.69;4955968;29;20059;-69
2023/08/23 10:16:05;;;;;;;9.55;7.40;;;;;;;29.22;60.34;100176.38;4955817;29;20055;-69
2023/08/23 10:18:36;;;;;;;9.48;7.40;;;;;;;29.25;60.27;100173.22;4955845;29;20059;-70
2023/08/23 10:21:04;;;;;;;9.43;7.50;;;;;;;29.26;60.37;100161.16;4955722;29;20110;-70
2023/08/23 10:23:39;;;;;;;9.27;7.30;;;;;;;29.30;60.06;100159.66;4955897;29;20456;-70
2023/08/23 10:26:19;;;;;;;11.18;7.93;;;;;;;29.33;60.06;100167.44;4955915;29;20103;-69
2023/08/23 10:28:49;;;;;;;10.82;7.90;;;;;;;29.35;60.09;100165.34;4955901;29;20047;-70
2023/08/23 10:31:23;;;;;;;10.32;7.60;;;;;;;29.40;59.96;100156.44;4955449;29;20058;-69
2023/08/23 10:33:55;;;;;;;9.60;7.32;;;;;;;29.39;59.85;100155.59;4955779;29;20059;-70
2023/08/23 10:36:30;;;;;;;11.40;7.97;;;;;;;29.44;59.74;100164.06;4955574;29;20059;-68
2023/08/23 10:38:59;;;;;;;10.75;7.78;;;;;;;29.48;59.89;100164.44;4954458;29;20105;-69
2023/08/23 10:41:27;;;;;;;10.40;8.25;;;;;;;29.49;59.74;100155.19;4955554;29;20047;-69
2023/08/23 10:43:59;;;;;;;9.45;7.35;;;;;;;29.53;59.82;100145.44;4955350;29;20087;-69
2023/08/23 10:46:30;;;;;;;10.93;8.75;;;;;;;29.55;59.61;100155.16;4955226;29;20047;-69
2023/08/23 10:48:59;;;;;;;10.95;8.63;;;;;;;29.59;59.44;100148.16;4955514;29;20055;-69
2023/08/23 10:51:30;;;;;;;13.68;8.77;;;;;;;29.63;59.25;100152.16;4955070;29;20480;-69
2023/08/23 10:54:00;;;;;;;10.93;9.27;;;;;;;29.67;59.28;100147.06;4955106;29;20086;-68
2023/08/23 10:56:32;;;;;;;10.65;8.98;;;;;;;29.70;58.97;100151.28;4954703;29;20067;-69
2023/08/23 10:59:00;;;;;;;10.77;9.07;;;;;;;29.72;58.87;100146.41;4955210;29;20073;-69
2023/08/23 11:01:29;;;;;;;9.82;8.07;;;;;;;29.74;58.84;100147.03;4954821;29;20051;-70
2023/08/23 11:03:58;;;;;;;10.93;8.80;;;;;;;29.76;58.99;100142.16;4955076;29;20421;-69
2023/08/23 11:06:27;;;;;;;10.27;8.90;;;;;;;29.77;58.97;100139.19;4954890;29;20157;-69
2023/08/23 11:08:57;;;;;;;10.90;9.00;;;;;;;29.81;59.01;100142.31;4954801;29;20139;-70
2023/08/23 11:11:29;;;;;;;10.98;8.65;;;;;;;29.83;58.81;100134.72;4954950;29;20051;-69
2023/08/23 11:14:00;;;;;;;9.93;8.70;;;;;;;29.86;58.99;100146.09;4954995;29;20110;-69
2023/08/23 11:16:32;;;;;;;11.30;8.52;;;;;;;29.88;59.19;100138.47;4954696;29;20043;-69
2023/08/23 11:19:02;;;;;;;12.23;9.13;;;;;;;29.92;58.92;100141.66;4954827;29;20078;-69
2023/08/23 11:21:34;;;;;;;10.55;8.68;;;;;;;29.94;59.06;100136.75;4954665;29;20095;-70
2023/08/23 11:24:03;;;;;;;9.77;8.65;;;;;;;29.96;59.04;100123.63;4954708;29;20055;-69
2023/08/23 11:26:37;;;;;;;11.10;8.77;;;;;;;30.00;59.22;100129.50;4954784;29;20051;-70
2023/08/23 11:29:06;;;;;;;11.38;8.48;;;;;;;30.01;59.08;100142.19;4954724;29;20047;-70
2023/08/23 11:31:35;;;;;;;10.70;8.45;;;;;;;30.06;59.04;100123.16;4954413;29;20047;-69